createdAt,value
2023-05-05T07:30:56.692Z,13.8
2023-05-05T07:31:52.214Z,16.4
2023-05-05T07:32:52.180Z,16.5
2023-05-05T07:33:52.207Z,16.6
2023-05-05T07:34:52.150Z,16.6
2023-05-05T07:35:52.132Z,16.7
2023-05-05T07:36:52.198Z,16.8
2023-05-05T07:37:52.457Z,16.8
2023-05-05T07:38:52.178Z,16.8
2023-05-05T07:39:52.152Z,16.9
2023-05-05T07:40:52.162Z,16.9
2023-05-05T07:41:52.189Z,16.9
2023-05-05T07:42:52.111Z,17.0
2023-05-05T07:43:52.168Z,17.0
2023-05-05T07:44:52.162Z,17.0
2023-05-05T07:45:52.246Z,17.0
2023-05-05T07:46:52.254Z,17.0
2023-05-05T07:47:52.190Z,17.1
2023-05-05T07:48:52.130Z,17.1
2023-05-05T07:49:52.130Z,17.1
2023-05-05T07:50:52.125Z,17.2
2023-05-05T07:51:52.275Z,17.2
2023-05-05T07:52:59.307Z,17.2
2023-05-05T07:53:52.166Z,17.3
2023-05-05T07:54:52.146Z,17.3
2023-05-05T07:55:52.089Z,17.4
2023-05-05T07:56:52.124Z,17.4
2023-05-05T07:57:52.082Z,17.5
2023-05-05T07:58:52.153Z,17.5
2023-05-05T07:59:52.118Z,17.5
2023-05-05T08:00:52.130Z,17.5
2023-05-05T08:01:54.336Z,17.6
2023-05-05T08:02:52.368Z,17.6
2023-05-05T08:03:52.247Z,17.7
2023-05-05T08:04:52.121Z,17.7
2023-05-05T08:05:52.094Z,17.8
2023-05-05T08:06:52.165Z,17.8
2023-05-05T08:07:52.117Z,17.9
2023-05-05T08:08:52.171Z,17.9
2023-05-05T08:09:52.099Z,17.9
2023-05-05T08:10:52.100Z,18.0
2023-05-05T08:11:52.090Z,18.0
2023-05-05T08:12:52.116Z,18.0
2023-05-05T08:13:52.088Z,18.0
2023-05-05T08:14:52.097Z,18.1
2023-05-05T08:15:52.110Z,18.1
2023-05-05T08:16:52.143Z,18.1
2023-05-05T08:17:52.221Z,18.1
2023-05-05T08:18:52.124Z,18.1
2023-05-05T08:19:52.127Z,18.1
2023-05-05T08:20:52.102Z,18.1
2023-05-05T08:21:52.131Z,18.1
2023-05-05T08:22:52.140Z,18.2
2023-05-05T08:23:52.067Z,18.2
2023-05-05T08:24:52.283Z,18.1
2023-05-05T08:25:52.141Z,18.1
2023-05-05T08:26:52.090Z,18.1
2023-05-05T08:27:52.096Z,18.1
2023-05-05T08:28:52.098Z,18.1
2023-05-05T08:29:52.104Z,18.0
2023-05-05T08:30:52.115Z,18.1
2023-05-05T08:31:52.171Z,18.1
2023-05-05T08:32:52.117Z,18.1
2023-05-05T08:33:52.055Z,18.1
2023-05-05T08:34:52.190Z,18.1
2023-05-05T08:35:52.054Z,18.2
2023-05-05T08:36:52.388Z,18.2
2023-05-05T08:37:52.071Z,18.3
2023-05-05T08:38:52.135Z,18.3
2023-05-05T08:39:52.056Z,18.4
2023-05-05T08:40:52.047Z,18.4
2023-05-05T08:41:52.055Z,18.5
2023-05-05T08:42:52.034Z,18.5
2023-05-05T08:43:52.198Z,18.6
2023-05-05T08:44:52.092Z,18.6
2023-05-05T08:45:52.090Z,18.7
2023-05-05T08:46:52.371Z,18.8
2023-05-05T08:47:52.087Z,18.8
2023-05-05T08:49:02.696Z,18.8
2023-05-05T08:49:52.108Z,18.9
2023-05-05T08:50:52.042Z,18.9
2023-05-05T08:51:52.094Z,18.9
2023-05-05T08:52:52.189Z,19.0
2023-05-05T08:53:52.069Z,19.0
2023-05-05T08:54:52.082Z,19.1
2023-05-05T08:55:52.021Z,19.1
2023-05-05T08:56:52.073Z,19.2
2023-05-05T08:57:53.379Z,19.2
2023-05-05T08:58:52.005Z,19.3
2023-05-05T08:59:52.046Z,19.3
2023-05-05T09:00:52.104Z,19.4
2023-05-05T09:01:52.085Z,19.4
2023-05-05T09:02:52.178Z,19.4
2023-05-05T09:03:52.676Z,19.5
2023-05-05T09:04:52.027Z,19.5
2023-05-05T09:05:52.036Z,19.5
2023-05-05T09:06:52.044Z,19.6
2023-05-05T09:07:52.225Z,19.6
2023-05-05T09:08:52.181Z,19.6
2023-05-05T09:09:51.993Z,19.7
2023-05-05T09:10:52.044Z,19.7
2023-05-05T09:11:52.065Z,19.8
2023-05-05T09:12:52.068Z,19.9
2023-05-05T09:13:52.017Z,19.9
2023-05-05T09:14:52.004Z,20.0
2023-05-05T09:15:51.982Z,20.0
2023-05-05T09:16:52.028Z,20.1
2023-05-05T09:17:52.013Z,20.1
2023-05-05T09:18:52.018Z,20.2
2023-05-05T09:19:52.071Z,20.2
2023-05-05T09:20:52.044Z,20.2
2023-05-05T09:21:52.027Z,20.2
2023-05-05T09:22:52.022Z,20.2
2023-05-05T09:23:51.995Z,20.1
2023-05-05T09:24:52.051Z,20.1
2023-05-05T09:25:52.010Z,20.1
2023-05-05T09:26:52.007Z,20.1
2023-05-05T09:27:52.002Z,20.0
2023-05-05T09:28:51.945Z,20.1
2023-05-05T09:29:52.128Z,20.1
2023-05-05T09:30:52.055Z,20.2
2023-05-05T09:31:52.023Z,20.2
2023-05-05T09:32:52.005Z,20.2
2023-05-05T09:33:52.043Z,20.2
2023-05-05T09:34:51.976Z,20.2
2023-05-05T09:35:52.056Z,20.2
2023-05-05T09:36:52.060Z,20.1
2023-05-05T09:37:52.005Z,20.0
2023-05-05T09:38:52.095Z,20.1
2023-05-05T09:39:52.012Z,20.1
2023-05-05T09:40:52.161Z,20.1
2023-05-05T09:41:51.993Z,20.2
2023-05-05T09:42:51.982Z,20.1
2023-05-05T09:43:52.249Z,20.1
2023-05-05T09:44:51.982Z,20.0
2023-05-05T09:45:52.119Z,20.0
2023-05-05T09:46:52.062Z,19.9
2023-05-05T09:47:56.538Z,19.9
2023-05-05T09:48:51.992Z,19.9
2023-05-05T09:49:52.028Z,19.9
2023-05-05T09:50:51.998Z,19.9
2023-05-05T09:51:52.337Z,19.9
2023-05-05T09:52:52.021Z,20.0
2023-05-05T09:53:51.932Z,20.0
2023-05-05T09:54:51.982Z,20.1
2023-05-05T09:55:52.002Z,20.1
2023-05-05T09:56:52.005Z,20.2
2023-05-05T09:57:51.984Z,20.3
2023-05-05T09:58:51.977Z,20.4
2023-05-05T09:59:51.997Z,20.4
2023-05-05T10:00:51.962Z,20.5
2023-05-05T10:01:52.180Z,20.6
2023-05-05T10:02:52.398Z,20.6
2023-05-05T10:03:52.180Z,20.6
2023-05-05T10:04:53.149Z,20.6
2023-05-05T10:05:52.116Z,20.6
2023-05-05T10:06:51.947Z,20.6
2023-05-05T10:07:51.955Z,20.7
2023-05-05T10:08:51.941Z,20.7
2023-05-05T10:09:51.979Z,20.7
2023-05-05T10:10:51.939Z,20.8
2023-05-05T10:11:51.961Z,20.9
2023-05-05T10:12:51.993Z,21.0
2023-05-05T10:13:52.074Z,21.0
2023-05-05T10:14:52.210Z,21.1
2023-05-05T10:15:52.052Z,21.2
2023-05-05T10:16:51.963Z,21.2
2023-05-05T10:18:06.204Z,21.3
2023-05-05T10:18:51.920Z,21.3
2023-05-05T10:19:51.985Z,21.4
2023-05-05T10:20:51.925Z,21.5
2023-05-05T10:21:51.981Z,21.6
2023-05-05T10:22:51.957Z,21.6
2023-05-05T10:23:51.962Z,21.7
2023-05-05T10:24:51.921Z,21.8
2023-05-05T10:25:51.884Z,21.8
2023-05-05T10:26:51.933Z,21.8
2023-05-05T10:27:51.901Z,21.9
2023-05-05T10:28:52.576Z,21.9
2023-05-05T10:29:51.948Z,21.9
2023-05-05T10:30:51.908Z,22.0
2023-05-05T10:31:52.044Z,22.0
2023-05-05T10:33:04.134Z,22.1
2023-05-05T10:33:52.012Z,22.1
2023-05-05T10:34:52.000Z,22.1
2023-05-05T10:35:52.061Z,22.2
2023-05-05T10:36:51.950Z,22.2
2023-05-05T10:37:51.950Z,22.3
2023-05-05T10:38:51.910Z,22.3
2023-05-05T10:39:51.963Z,22.4
2023-05-05T10:40:51.929Z,22.4
2023-05-05T10:41:51.895Z,22.3
2023-05-05T10:42:51.879Z,22.3
2023-05-05T10:43:51.950Z,22.3
2023-05-05T10:44:51.964Z,22.2
2023-05-05T10:45:52.029Z,22.1
2023-05-05T10:46:51.928Z,22.1
2023-05-05T10:47:52.041Z,22.1
2023-05-05T10:48:51.914Z,22.0
2023-05-05T10:49:52.020Z,22.0
2023-05-05T10:50:51.949Z,22.0
2023-05-05T10:51:51.876Z,22.0
2023-05-05T10:52:51.972Z,22.1
2023-05-05T10:53:51.937Z,22.2
2023-05-05T10:54:51.920Z,22.2
2023-05-05T10:55:51.993Z,22.3
2023-05-05T10:56:51.907Z,22.3
2023-05-05T10:57:51.892Z,22.3
2023-05-05T10:58:59.685Z,22.3
2023-05-05T10:59:51.923Z,22.2
2023-05-05T11:00:51.907Z,22.2
2023-05-05T11:01:51.875Z,22.1
2023-05-05T11:02:51.972Z,22.0
2023-05-05T11:03:51.934Z,22.0
2023-05-05T11:04:51.888Z,21.9
2023-05-05T11:05:51.879Z,21.8
2023-05-05T11:06:51.907Z,21.8
2023-05-05T11:07:51.898Z,21.7
2023-05-05T11:08:51.861Z,21.7
2023-05-05T11:09:51.925Z,21.7
2023-05-05T11:10:51.872Z,21.7
2023-05-05T11:11:51.920Z,21.7
2023-05-05T11:12:52.117Z,21.7
2023-05-05T11:13:51.916Z,21.8
2023-05-05T11:14:51.901Z,21.7
2023-05-05T11:15:51.871Z,21.7
2023-05-05T11:16:51.961Z,21.7
2023-05-05T11:17:51.914Z,21.6
2023-05-05T11:18:51.879Z,21.5
2023-05-05T11:19:52.100Z,21.5
2023-05-05T11:20:51.896Z,21.5
2023-05-05T11:21:51.898Z,21.5
2023-05-05T11:22:51.864Z,21.5
2023-05-05T11:23:51.937Z,21.5
2023-05-05T11:24:51.915Z,21.6
2023-05-05T11:25:51.889Z,21.6
2023-05-05T11:26:51.892Z,21.7
2023-05-05T11:27:51.857Z,21.8
2023-05-05T11:28:51.853Z,21.9
2023-05-05T11:29:52.884Z,21.9
2023-05-05T11:30:52.080Z,22.0
2023-05-05T11:31:51.881Z,22.1
2023-05-05T11:32:51.922Z,22.1
2023-05-05T11:33:51.882Z,22.1
2023-05-05T11:34:51.833Z,22.0
2023-05-05T11:35:51.876Z,22.0
2023-05-05T11:36:51.859Z,21.9
2023-05-05T11:37:51.831Z,21.8
2023-05-05T11:38:51.925Z,21.7
2023-05-05T11:39:51.859Z,21.5
2023-05-05T11:40:51.931Z,21.4
2023-05-05T11:41:51.986Z,21.3
2023-05-05T11:42:51.782Z,21.2
2023-05-05T11:43:51.821Z,21.1
2023-05-05T11:44:51.867Z,21.0
2023-05-05T11:45:51.871Z,20.9
2023-05-05T11:46:51.866Z,20.9
2023-05-05T11:47:51.887Z,20.8
2023-05-05T11:48:51.861Z,20.8
2023-05-05T11:49:51.867Z,20.7
2023-05-05T11:50:51.857Z,20.7
2023-05-05T11:51:51.842Z,20.7
2023-05-05T11:52:51.981Z,20.7
2023-05-05T11:53:51.870Z,20.7
2023-05-05T11:54:51.817Z,20.6
2023-05-05T11:55:51.831Z,20.6
2023-05-05T11:56:51.816Z,20.6
2023-05-05T11:57:51.835Z,20.6
2023-05-05T11:58:51.801Z,20.6
2023-05-05T11:59:51.818Z,20.6
2023-05-05T12:00:51.867Z,20.6
2023-05-05T12:01:51.791Z,20.6
2023-05-05T12:02:51.948Z,20.6
2023-05-05T12:03:51.968Z,20.7
2023-05-05T12:04:51.885Z,20.8
2023-05-05T12:05:51.844Z,20.8
2023-05-05T12:06:51.933Z,20.9
2023-05-05T12:07:51.801Z,21.0
2023-05-05T12:08:51.837Z,21.1
2023-05-05T12:09:51.832Z,21.1
2023-05-05T12:10:51.821Z,21.2
2023-05-05T12:11:51.826Z,21.3
2023-05-05T12:12:55.028Z,21.3
2023-05-05T12:13:51.910Z,21.4
2023-05-05T12:14:51.793Z,21.5
2023-05-05T12:15:51.875Z,21.5
2023-05-05T12:16:51.801Z,21.6
2023-05-05T12:17:51.924Z,21.6
2023-05-05T12:18:51.809Z,21.7
2023-05-05T12:19:52.105Z,21.7
2023-05-05T12:20:51.920Z,21.7
2023-05-05T12:21:51.806Z,21.7
2023-05-05T12:22:51.803Z,21.7
2023-05-05T12:23:51.823Z,21.7
2023-05-05T12:24:53.759Z,21.7
2023-05-05T12:25:51.811Z,21.7
2023-05-05T12:26:51.897Z,21.7
2023-05-05T12:27:51.788Z,21.8
2023-05-05T12:28:51.757Z,21.8
2023-05-05T12:29:51.815Z,21.8
2023-05-05T12:31:51.898Z,21.9
2023-05-05T12:32:51.885Z,21.8
2023-05-05T12:33:51.835Z,21.9
2023-05-05T12:34:51.785Z,21.9
2023-05-05T12:35:52.055Z,21.9
2023-05-05T12:36:51.824Z,22.0
2023-05-05T12:37:51.777Z,22.0
2023-05-05T12:38:51.801Z,22.1
2023-05-05T12:39:51.809Z,22.1
2023-05-05T12:40:51.804Z,22.2
2023-05-05T12:41:51.811Z,22.2
2023-05-05T12:42:51.769Z,22.2
2023-05-05T12:43:51.771Z,22.1
2023-05-05T12:44:51.765Z,21.9
2023-05-05T12:45:51.803Z,21.7
2023-05-05T12:46:51.805Z,21.5
2023-05-05T12:47:51.994Z,21.3
2023-05-05T12:48:51.772Z,21.1
2023-05-05T12:49:51.837Z,20.9
2023-05-05T12:50:51.758Z,20.9
2023-05-05T12:51:51.783Z,20.8
2023-05-05T12:52:51.742Z,20.8
2023-05-05T12:53:51.831Z,20.8
2023-05-05T12:54:52.978Z,20.8
2023-05-05T12:55:51.776Z,20.8
2023-05-05T12:56:51.838Z,20.8
2023-05-05T12:57:51.756Z,20.9
2023-05-05T12:58:52.447Z,20.8
2023-05-05T12:59:51.744Z,20.8
2023-05-05T13:00:53.362Z,20.8
2023-05-05T13:01:51.898Z,20.8
2023-05-05T13:02:51.903Z,20.8
2023-05-05T13:03:51.900Z,20.9
2023-05-05T13:04:51.751Z,20.9
2023-05-05T13:05:51.783Z,21.0
2023-05-05T13:06:54.007Z,21.1
2023-05-05T13:07:51.832Z,21.1
2023-05-05T13:08:51.789Z,21.1
2023-05-05T13:09:51.980Z,21.1
2023-05-05T13:10:52.321Z,21.1
2023-05-05T13:11:51.828Z,21.1
2023-05-05T13:12:52.022Z,21.1
2023-05-05T13:13:51.741Z,21.1
2023-05-05T13:14:51.719Z,21.2
2023-05-05T13:15:51.773Z,21.2
2023-05-05T13:17:02.304Z,21.2
2023-05-05T13:17:51.749Z,21.3
2023-05-05T13:18:51.785Z,21.3
2023-05-05T13:19:51.755Z,21.3
2023-05-05T13:20:51.979Z,21.2
2023-05-05T13:21:51.722Z,21.2
2023-05-05T13:22:51.729Z,21.2
2023-05-05T13:23:51.728Z,21.1
2023-05-05T13:25:07.061Z,21.1
2023-05-05T13:25:55.262Z,21.1
2023-05-05T13:26:51.690Z,21.0
2023-05-05T13:27:51.819Z,21.0
2023-05-05T13:28:51.700Z,21.0
2023-05-05T13:29:51.730Z,21.0
2023-05-05T13:30:51.734Z,21.0
2023-05-05T13:31:51.955Z,21.0
2023-05-05T13:32:51.891Z,21.0
2023-05-05T13:33:56.162Z,21.0
2023-05-05T13:34:51.696Z,20.9
2023-05-05T13:35:51.706Z,20.9
2023-05-05T13:36:51.705Z,20.9
2023-05-05T13:37:51.774Z,20.9
2023-05-05T13:38:51.782Z,20.9
2023-05-05T13:39:51.725Z,20.9
2023-05-05T13:40:51.706Z,20.8
2023-05-05T13:41:52.181Z,20.8
2023-05-05T13:42:51.758Z,20.8
2023-05-05T13:43:52.991Z,20.8
2023-05-05T13:44:51.671Z,20.9
2023-05-05T13:45:51.672Z,21.0
2023-05-05T13:46:51.749Z,21.0
2023-05-05T13:48:55.967Z,21.0
2023-05-05T13:49:51.740Z,21.1
2023-05-05T13:50:51.682Z,21.2
2023-05-05T13:51:51.691Z,21.2
2023-05-05T13:52:51.856Z,21.2
2023-05-05T13:53:51.692Z,21.2
2023-05-05T13:54:51.950Z,21.2
2023-05-05T13:55:51.693Z,21.2
2023-05-05T13:56:51.720Z,21.2
2023-05-05T13:57:51.692Z,21.2
2023-05-05T13:58:51.710Z,21.3
2023-05-05T13:59:51.645Z,21.3
2023-05-05T14:00:51.781Z,21.4
2023-05-05T14:01:51.666Z,21.4
2023-05-05T14:02:51.685Z,21.4
2023-05-05T14:03:51.697Z,21.5
2023-05-05T14:04:51.678Z,21.5
2023-05-05T14:05:51.748Z,21.5
2023-05-05T14:06:51.696Z,21.5
2023-05-05T14:07:51.657Z,21.5
2023-05-05T14:08:51.690Z,21.5
2023-05-05T14:09:51.685Z,21.5
2023-05-05T14:10:53.856Z,21.5
2023-05-05T14:11:51.636Z,21.5
2023-05-05T14:12:51.654Z,21.4
2023-05-05T14:13:51.654Z,21.4
2023-05-05T14:14:51.681Z,21.4
2023-05-05T14:15:51.615Z,21.3
2023-05-05T14:16:51.720Z,21.3
2023-05-05T14:17:51.716Z,21.3
2023-05-05T14:18:51.652Z,21.3
2023-05-05T14:19:51.674Z,21.2
2023-05-05T14:20:51.671Z,21.2
2023-05-05T14:21:51.668Z,21.2
2023-05-05T14:22:51.699Z,21.2
2023-05-05T14:23:51.686Z,21.2
2023-05-05T14:24:51.672Z,21.3
2023-05-05T14:25:51.662Z,21.3
2023-05-05T14:26:51.754Z,21.3
2023-05-05T14:27:51.664Z,21.4
2023-05-05T14:28:51.715Z,21.4
2023-05-05T14:29:51.715Z,21.4
2023-05-05T14:30:51.696Z,21.4
2023-05-05T14:32:51.654Z,21.4
2023-05-05T14:33:51.617Z,21.5
2023-05-05T14:34:51.674Z,21.5
2023-05-05T14:35:51.627Z,21.5
2023-05-05T14:36:51.660Z,21.5
2023-05-05T14:37:51.838Z,21.6
2023-05-05T14:38:51.727Z,21.6
2023-05-05T14:39:51.635Z,21.7
2023-05-05T14:40:58.516Z,21.7
2023-05-05T14:41:51.643Z,21.8
2023-05-05T14:42:51.618Z,21.8
2023-05-05T14:43:51.646Z,21.8
2023-05-05T14:44:51.592Z,21.8
2023-05-05T14:45:51.639Z,21.9
2023-05-05T14:46:51.637Z,21.9
2023-05-05T14:47:51.640Z,21.9
2023-05-05T14:48:51.788Z,21.9
2023-05-05T14:49:51.606Z,22.0
2023-05-05T14:50:51.665Z,21.9
2023-05-05T14:51:51.639Z,21.9
2023-05-05T14:52:51.670Z,21.9
2023-05-05T14:53:51.655Z,21.9
2023-05-05T14:54:51.637Z,21.8
2023-05-05T14:55:51.652Z,21.8
2023-05-05T14:56:51.650Z,21.7
2023-05-05T14:57:51.604Z,21.7
2023-05-05T14:58:51.608Z,21.7
2023-05-05T14:59:51.814Z,21.8
2023-05-05T15:00:51.824Z,21.8
2023-05-05T15:01:51.666Z,21.8
2023-05-05T15:02:56.156Z,21.8
2023-05-05T15:03:51.793Z,21.8
2023-05-05T15:04:51.634Z,21.8
2023-05-05T15:05:51.663Z,21.8
2023-05-05T15:06:51.663Z,21.8
2023-05-05T15:07:51.628Z,21.8
2023-05-05T15:08:51.611Z,21.7
2023-05-05T15:09:51.674Z,21.7
2023-05-05T15:10:51.722Z,21.7
2023-05-05T15:12:01.937Z,21.6
2023-05-05T15:12:51.590Z,21.5
2023-05-05T15:13:51.584Z,21.5
2023-05-05T15:14:56.240Z,21.4
2023-05-05T15:15:51.645Z,21.3
2023-05-05T15:16:51.581Z,21.3
2023-05-05T15:17:51.600Z,21.3
2023-05-05T15:18:51.553Z,21.3
2023-05-05T15:19:51.637Z,21.3
2023-05-05T15:20:51.924Z,21.3
2023-05-05T15:21:51.591Z,21.3
2023-05-05T15:22:51.585Z,21.3
2023-05-05T15:23:51.593Z,21.3
2023-05-05T15:24:51.592Z,21.3
2023-05-05T15:25:51.622Z,21.3
2023-05-05T15:26:51.589Z,21.3
2023-05-05T15:27:51.554Z,21.4
2023-05-05T15:28:51.595Z,21.4
2023-05-05T15:29:51.553Z,21.4
2023-05-05T15:30:51.564Z,21.3
2023-05-05T15:31:51.795Z,21.3
2023-05-05T15:32:52.917Z,21.2
2023-05-05T15:33:51.572Z,21.2
2023-05-05T15:34:51.556Z,21.2
2023-05-05T15:35:51.556Z,21.1
2023-05-05T15:36:51.589Z,21.1
2023-05-05T15:38:51.595Z,21.0
2023-05-05T15:39:51.586Z,20.9
2023-05-05T15:40:51.561Z,20.9
2023-05-05T15:41:51.559Z,20.8
2023-05-05T15:42:51.630Z,20.8
2023-05-05T15:43:51.554Z,20.8
2023-05-05T15:44:51.575Z,20.8
2023-05-05T15:45:51.576Z,20.8
2023-05-05T15:46:51.600Z,20.8
2023-05-05T15:47:51.587Z,20.8
2023-05-05T15:48:51.524Z,20.8
2023-05-05T15:49:51.532Z,20.8
2023-05-05T15:50:51.567Z,20.8
2023-05-05T15:51:51.514Z,20.8
2023-05-05T15:52:51.531Z,20.7
2023-05-05T15:53:51.624Z,20.7
2023-05-05T15:54:51.513Z,20.7
2023-05-05T15:55:51.684Z,20.7
2023-05-05T15:56:51.523Z,20.7
2023-05-05T15:58:51.540Z,20.7
2023-05-05T15:59:51.591Z,20.8
2023-05-05T16:00:51.627Z,20.7
2023-05-05T16:01:51.512Z,20.7
2023-05-05T16:02:51.616Z,20.7
2023-05-05T16:03:51.510Z,20.6
2023-05-05T16:04:51.689Z,20.5
2023-05-05T16:05:51.835Z,20.5
2023-05-05T16:06:51.537Z,20.4
2023-05-05T16:07:51.511Z,20.3
2023-05-05T16:08:51.499Z,20.2
2023-05-05T16:09:51.566Z,20.2
2023-05-05T16:10:51.534Z,20.1
2023-05-05T16:11:51.526Z,20.0
2023-05-05T16:12:51.569Z,19.9
2023-05-05T16:13:51.485Z,19.8
2023-05-05T16:14:51.544Z,19.7
2023-05-05T16:15:51.675Z,19.6
2023-05-05T16:16:51.568Z,19.5
2023-05-05T16:17:51.554Z,19.4
2023-05-05T16:18:51.487Z,19.4
2023-05-05T16:19:51.503Z,19.3
2023-05-05T16:20:51.483Z,19.2
2023-05-05T16:21:51.476Z,19.1
2023-05-05T16:22:51.516Z,19.1
2023-05-05T16:23:51.478Z,19.0
2023-05-05T16:24:51.484Z,19.0
2023-05-05T16:25:51.501Z,18.9
2023-05-05T16:26:51.515Z,18.9
2023-05-05T16:27:51.494Z,18.9
2023-05-05T16:28:51.526Z,18.8
2023-05-05T16:29:51.501Z,18.8
2023-05-05T16:30:51.515Z,18.8
2023-05-05T16:31:51.543Z,18.8
2023-05-05T16:32:51.593Z,18.8
2023-05-05T16:33:51.474Z,18.8
2023-05-05T16:34:51.477Z,18.8
2023-05-05T16:36:51.478Z,18.7
2023-05-05T16:37:51.607Z,18.7
2023-05-05T16:38:51.948Z,18.7
2023-05-05T16:39:51.477Z,18.7
2023-05-05T16:40:51.823Z,18.6
2023-05-05T16:41:51.646Z,18.6
2023-05-05T16:42:51.604Z,18.6
2023-05-05T16:43:51.485Z,18.6
2023-05-05T16:44:51.575Z,18.6
2023-05-05T16:45:52.826Z,18.5
2023-05-05T16:46:52.466Z,18.5
2023-05-05T16:47:52.530Z,18.5
2023-05-05T16:48:52.460Z,18.5
2023-05-05T16:49:52.515Z,18.5
2023-05-05T16:50:52.476Z,18.5
2023-05-05T16:51:52.502Z,18.4
2023-05-05T16:52:52.518Z,18.4
2023-05-05T16:53:52.432Z,18.4
2023-05-05T16:54:52.525Z,18.3
2023-05-05T16:55:52.466Z,18.3
2023-05-05T16:56:52.448Z,18.3
2023-05-05T16:57:52.468Z,18.3
2023-05-05T16:58:52.553Z,18.2
2023-05-05T16:59:52.507Z,18.2
2023-05-05T17:00:52.429Z,18.2
2023-05-05T17:01:52.519Z,18.1
2023-05-05T17:02:52.512Z,18.1
2023-05-05T17:03:52.416Z,18.1
2023-05-05T17:04:52.536Z,18.1
2023-05-05T17:05:52.579Z,18.0
2023-05-05T17:06:52.435Z,18.0
2023-05-05T17:07:52.495Z,18.0
2023-05-05T17:08:52.433Z,18.0
2023-05-05T17:09:52.408Z,17.9
2023-05-05T17:10:52.444Z,17.9
2023-05-05T17:11:52.459Z,17.9
2023-05-05T17:12:52.509Z,17.9
2023-05-05T17:13:52.436Z,17.9
2023-05-05T17:14:52.475Z,17.8
2023-05-05T17:15:52.439Z,17.8
2023-05-05T17:16:52.398Z,17.8
2023-05-05T17:17:52.491Z,17.8
2023-05-05T17:18:52.411Z,17.7
2023-05-05T17:19:52.427Z,17.7
2023-05-05T17:20:52.646Z,17.7
2023-05-05T17:21:52.391Z,17.7
2023-05-05T17:22:52.474Z,17.7
2023-05-05T17:23:52.387Z,17.6
2023-05-05T17:24:52.755Z,17.6
2023-05-05T17:25:53.019Z,17.6
2023-05-05T17:26:57.062Z,17.5
2023-05-05T17:27:52.902Z,17.5
2023-05-05T17:29:52.689Z,17.5
2023-05-05T17:30:52.424Z,17.5
2023-05-05T17:31:52.615Z,17.4
2023-05-05T17:32:52.459Z,17.4
2023-05-05T17:33:52.972Z,17.4
2023-05-05T17:34:52.610Z,17.4
2023-05-05T17:35:52.545Z,17.3
2023-05-05T17:36:52.526Z,17.3
2023-05-05T17:37:52.753Z,17.3
2023-05-05T17:38:52.395Z,17.2
2023-05-05T17:39:52.536Z,17.2
2023-05-05T17:40:52.403Z,17.2
2023-05-05T17:41:52.715Z,17.2
2023-05-05T17:42:52.739Z,17.2
2023-05-05T17:44:16.210Z,17.1
2023-05-05T17:44:54.378Z,17.1
2023-05-05T17:46:52.817Z,17.1
2023-05-05T17:47:52.689Z,17.0
2023-05-05T17:52:52.400Z,17.0
2023-05-05T17:53:52.358Z,16.8
2023-05-05T17:54:52.477Z,16.8
2023-05-05T17:55:52.400Z,16.7
2023-05-05T17:56:52.378Z,16.6
2023-05-05T17:57:52.756Z,16.6
2023-05-05T17:58:53.422Z,16.5
2023-05-05T17:59:52.345Z,16.5
2023-05-05T18:00:52.460Z,16.4
2023-05-05T18:01:52.399Z,16.4
2023-05-05T18:02:52.493Z,16.3
2023-05-05T18:03:52.456Z,16.3
2023-05-05T18:04:52.611Z,16.2
2023-05-05T18:05:52.479Z,16.2
2023-05-05T18:06:52.349Z,16.1
2023-05-05T18:07:52.782Z,16.1
2023-05-05T18:08:52.621Z,16.0
2023-05-05T18:09:52.399Z,16.0
2023-05-05T18:10:52.377Z,15.9
2023-05-05T18:11:52.886Z,15.9
2023-05-05T18:12:52.423Z,15.8
2023-05-05T18:13:52.322Z,15.7
2023-05-05T18:14:52.349Z,15.7
2023-05-05T18:15:52.377Z,15.6
2023-05-05T18:16:52.476Z,15.6
2023-05-05T18:17:52.374Z,15.5
2023-05-05T18:18:52.400Z,15.5
2023-05-05T18:19:52.388Z,15.5
2023-05-05T18:20:52.325Z,15.4
2023-05-05T18:21:52.433Z,15.4
2023-05-05T18:22:52.382Z,15.3
2023-05-05T18:23:52.310Z,15.3
2023-05-05T18:24:52.353Z,15.3
2023-05-05T18:25:52.295Z,15.2
2023-05-05T18:26:52.507Z,15.2
2023-05-05T18:27:52.442Z,15.1
2023-05-05T18:28:52.334Z,15.1
2023-05-05T18:30:01.202Z,15.1
2023-05-05T18:30:52.356Z,15.0
2023-05-05T18:31:52.960Z,15.0
2023-05-05T18:32:52.414Z,14.9
2023-05-05T18:33:52.509Z,14.9
2023-05-05T18:34:52.352Z,14.9
2023-05-05T18:35:52.486Z,14.8
2023-05-05T18:36:52.554Z,14.8
2023-05-05T18:37:52.659Z,14.8
2023-05-05T18:38:52.457Z,14.7
2023-05-05T18:39:52.567Z,14.7
2023-05-05T18:40:53.097Z,14.7
2023-05-05T18:41:52.342Z,14.6
2023-05-05T18:42:52.564Z,14.6
2023-05-05T18:43:52.786Z,14.6
2023-05-05T18:44:52.388Z,14.5
2023-05-05T18:49:19.027Z,14.5
2023-05-05T18:50:20.608Z,14.4
2023-05-05T18:51:16.325Z,14.3
2023-05-05T18:52:16.581Z,14.3
2023-05-05T18:55:16.658Z,14.3
2023-05-05T18:56:16.668Z,14.2
2023-05-05T18:57:16.776Z,14.2
2023-05-05T18:58:16.316Z,14.1
2023-05-05T18:59:16.394Z,14.1
2023-05-05T19:00:16.307Z,14.1
2023-05-05T19:01:16.939Z,14.1
2023-05-05T19:02:16.291Z,14.0
2023-05-05T19:03:17.144Z,14.0
2023-05-05T19:04:29.468Z,14.0
2023-05-05T19:05:16.326Z,14.0
2023-05-05T19:06:16.380Z,13.9
2023-05-05T19:07:24.093Z,13.9
2023-05-05T19:08:16.503Z,13.9
2023-05-05T19:09:16.296Z,13.9
2023-05-05T19:10:16.557Z,13.9
2023-05-05T19:11:16.248Z,13.9
2023-05-05T19:12:16.908Z,13.8
2023-05-05T19:13:16.317Z,13.8
2023-05-05T19:14:16.262Z,13.8
2023-05-05T19:15:16.256Z,13.8
2023-05-05T19:16:16.280Z,13.8
2023-05-05T19:17:16.213Z,13.7
2023-05-05T19:18:16.327Z,13.7
2023-05-05T19:19:16.268Z,13.7
2023-05-05T19:20:16.257Z,13.7
2023-05-05T19:21:16.506Z,13.7
2023-05-05T19:22:16.241Z,13.7
2023-05-05T19:23:16.214Z,13.6
2023-05-05T19:24:16.233Z,13.6
2023-05-05T19:25:16.238Z,13.6
2023-05-05T19:26:20.518Z,13.6
2023-05-05T19:27:16.829Z,13.6
2023-05-05T19:28:16.395Z,13.6
2023-05-05T19:29:16.438Z,13.6
2023-05-05T19:30:16.286Z,13.6
2023-05-05T19:31:16.242Z,13.6
2023-05-05T19:32:16.504Z,13.5
2023-05-05T19:33:16.252Z,13.5
2023-05-05T19:34:16.274Z,13.5
2023-05-05T19:35:16.381Z,13.5
2023-05-05T19:36:16.212Z,13.5
2023-05-05T19:37:16.290Z,13.5
2023-05-05T19:38:17.300Z,13.4
2023-05-05T19:39:16.352Z,13.4
2023-05-05T19:40:16.285Z,13.4
2023-05-05T19:41:16.197Z,13.4
2023-05-05T19:42:16.247Z,13.4
2023-05-05T19:43:16.329Z,13.4
2023-05-05T19:44:16.209Z,13.4
2023-05-05T19:45:16.360Z,13.4
2023-05-05T19:46:16.279Z,13.4
2023-05-05T19:47:16.385Z,13.4
2023-05-05T19:48:16.181Z,13.3
2023-05-05T19:49:16.252Z,13.3
2023-05-05T19:50:16.264Z,13.3
2023-05-05T19:51:16.219Z,13.3
2023-05-05T19:52:16.277Z,13.3
2023-05-05T19:53:16.238Z,13.3
2023-05-05T19:54:16.299Z,13.3
2023-05-05T19:55:16.213Z,13.2
2023-05-05T19:56:16.173Z,13.2
2023-05-05T19:57:17.603Z,13.2
2023-05-05T19:58:16.266Z,13.2
2023-05-05T19:59:16.209Z,13.2
2023-05-05T20:00:16.214Z,13.1
2023-05-05T20:01:16.225Z,13.1
2023-05-05T20:02:16.223Z,13.1
2023-05-05T20:03:16.317Z,13.1
2023-05-05T20:04:16.171Z,13.0
2023-05-05T20:05:16.384Z,13.0
2023-05-05T20:06:16.216Z,13.0
2023-05-05T20:07:16.222Z,13.0
2023-05-05T20:08:16.245Z,13.0
2023-05-05T20:09:16.160Z,12.9
2023-05-05T20:10:16.157Z,12.9
2023-05-05T20:11:16.163Z,12.9
2023-05-05T20:12:16.192Z,12.9
2023-05-05T20:13:16.293Z,12.9
2023-05-05T20:14:16.161Z,12.8
2023-05-05T20:15:16.155Z,12.8
2023-05-05T20:16:16.381Z,12.8
2023-05-05T20:17:16.210Z,12.7
2023-05-05T20:18:16.246Z,12.7
2023-05-05T20:19:16.218Z,12.6
2023-05-05T20:20:16.144Z,12.6
2023-05-05T20:21:16.175Z,12.6
2023-05-05T20:22:16.126Z,12.5
2023-05-05T20:23:16.155Z,12.5
2023-05-05T20:24:16.142Z,12.4
2023-05-05T20:25:16.201Z,12.4
2023-05-05T20:26:16.151Z,12.4
2023-05-05T20:27:16.319Z,12.3
2023-05-05T20:28:16.157Z,12.3
2023-05-05T20:29:16.210Z,12.3
2023-05-05T20:30:16.215Z,12.3
2023-05-05T20:31:16.197Z,12.2
2023-05-05T20:32:16.211Z,12.2
2023-05-05T20:33:16.259Z,12.2
2023-05-05T20:35:16.225Z,12.1
2023-05-05T20:36:16.145Z,12.1
2023-05-05T20:37:16.335Z,12.0
2023-05-05T20:38:16.328Z,12.0
2023-05-05T20:39:16.131Z,11.9
2023-05-05T20:40:16.232Z,11.9
2023-05-05T20:41:16.166Z,11.9
2023-05-05T20:42:16.169Z,11.9
2023-05-05T20:43:16.126Z,11.9
2023-05-05T20:44:16.125Z,11.9
2023-05-05T20:45:16.114Z,11.9
2023-05-05T20:46:16.233Z,11.9
2023-05-05T20:47:16.120Z,11.9
2023-05-05T20:48:16.120Z,11.9
2023-05-05T20:49:16.285Z,11.9
2023-05-05T20:50:16.177Z,11.9
2023-05-05T20:51:16.384Z,11.9
2023-05-05T20:52:39.305Z,11.9
2023-05-05T20:53:16.104Z,11.9
2023-05-05T20:54:16.190Z,11.9
2023-05-05T20:55:16.278Z,11.9
2023-05-05T20:56:16.142Z,11.9
2023-05-05T20:57:16.127Z,11.8
2023-05-05T20:58:16.064Z,11.8
2023-05-05T20:59:16.105Z,11.8
2023-05-05T21:00:17.381Z,11.8
2023-05-05T21:01:16.183Z,11.8
2023-05-05T21:02:16.151Z,11.8
2023-05-05T21:03:16.195Z,11.7
2023-05-05T21:04:16.066Z,11.7
2023-05-05T21:05:16.078Z,11.7
2023-05-05T21:06:16.124Z,11.7
2023-05-05T21:07:16.116Z,11.6